createdAt,value
2023-03-17T00:00:15.252Z,6.30
2023-03-17T00:02:43.578Z,6.80
2023-03-17T00:05:19.726Z,7.55
2023-03-17T00:07:47.955Z,6.35
2023-03-17T00:10:17.370Z,8.00
2023-03-17T00:12:45.193Z,5.15
2023-03-17T00:15:13.827Z,8.23
2023-03-17T00:17:41.512Z,6.47
2023-03-17T00:20:12.933Z,7.53
2023-03-17T00:22:40.046Z,6.28
2023-03-17T00:25:17.379Z,6.03
2023-03-17T00:27:44.460Z,10.00
2023-03-17T00:30:12.055Z,6.32
2023-03-17T00:32:39.778Z,3.95
2023-03-17T00:35:15.989Z,7.53
2023-03-17T00:37:43.849Z,7.07
2023-03-17T00:40:22.134Z,6.55
2023-03-17T00:42:50.012Z,8.15
2023-03-17T00:45:17.929Z,6.53
2023-03-17T00:47:48.320Z,8.20
2023-03-17T00:50:19.664Z,4.13
2023-03-17T00:52:46.890Z,7.10
2023-03-17T00:55:14.368Z,7.05
2023-03-17T00:57:41.947Z,4.65
2023-03-17T01:00:28.525Z,6.30
2023-03-17T01:02:57.078Z,6.25
2023-03-17T01:05:25.086Z,7.43
2023-03-17T01:07:54.652Z,7.18
2023-03-17T01:10:27.185Z,6.95
2023-03-17T01:12:55.559Z,7.95
2023-03-17T01:15:23.649Z,7.53
2023-03-17T01:17:51.463Z,9.82
2023-03-17T01:20:21.677Z,7.93
2023-03-17T01:25:16.439Z,5.22
2023-03-17T01:27:43.833Z,8.55
2023-03-17T01:30:22.639Z,7.10
2023-03-17T01:32:49.913Z,7.15
2023-03-17T01:35:17.781Z,5.85
2023-03-17T01:37:45.317Z,8.63
2023-03-17T01:40:15.033Z,4.95
2023-03-17T01:42:44.695Z,6.32
2023-03-17T01:45:31.088Z,9.52
2023-03-17T01:47:59.061Z,6.90
2023-03-17T01:50:26.614Z,7.47
2023-03-17T01:52:53.751Z,7.65
2023-03-17T01:55:21.343Z,6.82
2023-03-17T01:57:53.587Z,6.65
2023-03-17T02:00:24.221Z,7.00
2023-03-17T02:02:54.206Z,8.77
2023-03-17T02:05:23.138Z,6.70
2023-03-17T02:07:50.365Z,8.10
2023-03-17T02:10:19.376Z,7.70
2023-03-17T02:12:48.287Z,10.77
2023-03-17T02:15:15.478Z,6.25
2023-03-17T02:17:43.046Z,7.18
2023-03-17T02:20:16.272Z,7.05
2023-03-17T02:22:49.212Z,7.28
2023-03-17T02:25:19.784Z,5.38
2023-03-17T02:27:49.282Z,8.35
2023-03-17T02:30:22.532Z,7.57
2023-03-17T02:32:49.739Z,8.13
2023-03-17T02:35:17.284Z,7.65
2023-03-17T02:37:46.093Z,6.80
2023-03-17T02:40:14.081Z,5.95
2023-03-17T02:42:41.958Z,7.10
2023-03-17T02:45:12.141Z,6.30
2023-03-17T02:47:39.343Z,7.60
2023-03-17T02:50:07.363Z,6.97
2023-03-17T02:52:34.550Z,6.15
2023-03-17T02:55:01.827Z,7.75
2023-03-17T02:57:28.991Z,5.68
2023-03-17T02:59:56.494Z,6.30
2023-03-17T03:02:23.651Z,7.03
2023-03-17T03:04:50.862Z,7.82
2023-03-17T03:07:18.063Z,6.60
2023-03-17T03:09:45.476Z,7.28
2023-03-17T03:12:13.782Z,8.95
2023-03-17T03:14:40.985Z,6.53
2023-03-17T03:17:09.595Z,5.93
2023-03-17T03:19:36.833Z,7.82
2023-03-17T03:22:03.937Z,7.28
2023-03-17T03:24:31.378Z,5.90
2023-03-17T03:26:58.738Z,6.47
2023-03-17T03:29:26.124Z,7.10
2023-03-17T03:31:53.338Z,5.53
2023-03-17T03:34:20.708Z,8.80
2023-03-17T03:36:47.897Z,8.18
2023-03-17T03:39:14.998Z,5.97
2023-03-17T03:41:42.294Z,7.63
2023-03-17T03:44:09.445Z,8.73
2023-03-17T03:46:36.632Z,7.75
2023-03-17T03:49:03.904Z,8.20
2023-03-17T03:51:31.192Z,5.90
2023-03-17T03:53:58.336Z,8.00
2023-03-17T03:56:25.475Z,7.53
2023-03-17T03:58:52.785Z,6.18
2023-03-17T04:01:20.114Z,7.50
2023-03-17T04:03:47.393Z,3.95
2023-03-17T04:06:14.815Z,7.18
2023-03-17T04:08:42.027Z,3.88
2023-03-17T04:11:09.441Z,7.10
2023-03-17T04:13:36.752Z,8.90
2023-03-17T04:16:04.158Z,6.28
2023-03-17T04:18:31.845Z,8.07
2023-03-17T04:20:59.257Z,7.18
2023-03-17T04:23:26.472Z,7.07
2023-03-17T04:25:53.981Z,5.28
2023-03-17T04:28:22.371Z,6.45
2023-03-17T04:30:49.449Z,6.35
2023-03-17T04:33:16.747Z,8.00
2023-03-17T04:35:43.939Z,6.45
2023-03-17T04:38:13.443Z,7.65
2023-03-17T04:40:40.757Z,5.82
2023-03-17T04:43:08.764Z,5.35
2023-03-17T04:45:35.881Z,5.03
2023-03-17T04:48:03.114Z,7.53
2023-03-17T04:50:33.338Z,4.78
2023-03-17T04:53:00.908Z,6.38
2023-03-17T04:55:28.262Z,8.88
2023-03-17T04:57:55.504Z,5.15
2023-03-17T05:00:22.733Z,9.73
2023-03-17T05:02:49.922Z,6.47
2023-03-17T05:05:17.067Z,6.60
2023-03-17T05:07:44.896Z,8.13
2023-03-17T05:10:12.589Z,6.05
2023-03-17T05:12:39.702Z,5.68
2023-03-17T05:15:07.197Z,7.35
2023-03-17T05:17:34.392Z,5.95
2023-03-17T05:20:01.513Z,5.68
2023-03-17T05:22:28.657Z,6.43
2023-03-17T05:24:55.786Z,7.50
2023-03-17T05:27:23.224Z,7.07
2023-03-17T05:29:50.438Z,6.53
2023-03-17T05:32:18.291Z,7.85
2023-03-17T05:34:46.281Z,7.57
2023-03-17T05:37:14.070Z,6.25
2023-03-17T05:39:41.993Z,5.90
2023-03-17T05:42:09.245Z,8.73
2023-03-17T05:44:36.391Z,8.23
2023-03-17T05:47:03.533Z,5.28
2023-03-17T05:49:30.856Z,6.28
2023-03-17T05:51:58.730Z,5.43
2023-03-17T05:54:25.900Z,7.25
2023-03-17T05:56:53.030Z,8.98
2023-03-17T05:59:20.456Z,6.45
2023-03-17T06:01:47.586Z,6.70
2023-03-17T06:04:15.319Z,6.40
2023-03-17T06:06:42.457Z,7.40
2023-03-17T06:09:09.681Z,6.35
2023-03-17T06:11:36.866Z,6.80
2023-03-17T06:14:04.153Z,7.82
2023-03-17T06:16:33.138Z,4.18
2023-03-17T06:19:00.634Z,6.78
2023-03-17T06:21:27.988Z,4.43
2023-03-17T06:23:55.233Z,11.43
2023-03-17T06:26:22.402Z,8.07
2023-03-17T06:28:49.597Z,9.75
2023-03-17T06:31:17.848Z,5.00
2023-03-17T06:33:45.033Z,7.53
2023-03-17T06:36:12.320Z,7.82
2023-03-17T06:38:40.042Z,6.90
2023-03-17T06:41:07.223Z,8.35
2023-03-17T06:43:35.174Z,7.47
2023-03-17T06:46:02.695Z,8.90
2023-03-17T06:48:29.884Z,6.38
2023-03-17T06:50:57.172Z,7.53
2023-03-17T06:53:24.483Z,9.35
2023-03-17T06:55:51.807Z,6.78
2023-03-17T06:58:20.375Z,7.57
2023-03-17T07:00:48.892Z,6.25
2023-03-17T07:03:16.910Z,6.15
2023-03-17T07:05:44.556Z,8.20
2023-03-17T07:08:11.813Z,6.55
2023-03-17T07:10:39.139Z,8.32
2023-03-17T07:13:08.454Z,5.35
2023-03-17T07:15:35.963Z,8.65
2023-03-17T07:18:03.199Z,9.15
2023-03-17T07:20:30.661Z,7.20
2023-03-17T07:22:58.093Z,7.03
2023-03-17T07:25:25.407Z,7.78
2023-03-17T07:27:52.810Z,6.88
2023-03-17T07:30:20.562Z,7.30
2023-03-17T07:32:47.928Z,9.68
2023-03-17T07:35:15.997Z,5.97
2023-03-17T07:37:44.230Z,7.97
2023-03-17T07:40:11.717Z,7.03
2023-03-17T07:42:38.890Z,8.27
2023-03-17T07:45:07.863Z,7.95
2023-03-17T07:47:35.219Z,8.27
2023-03-17T07:50:02.392Z,10.63
2023-03-17T07:52:29.640Z,8.35
2023-03-17T07:54:58.365Z,8.98
2023-03-17T07:57:25.968Z,9.48
2023-03-17T07:59:53.470Z,8.95
2023-03-17T08:02:21.405Z,8.20
2023-03-17T08:04:48.885Z,7.32
2023-03-17T08:07:16.072Z,8.43
2023-03-17T08:09:43.518Z,9.52
2023-03-17T08:12:11.035Z,8.85
2023-03-17T08:14:38.200Z,7.93
2023-03-17T08:17:06.262Z,8.98
2023-03-17T08:19:33.422Z,10.18
2023-03-17T08:22:01.344Z,9.75
2023-03-17T08:24:29.381Z,7.97
2023-03-17T08:26:57.178Z,6.47
2023-03-17T08:29:25.422Z,8.85
2023-03-17T08:31:53.041Z,8.38
2023-03-17T08:34:22.489Z,11.52
2023-03-17T08:36:49.645Z,8.60
2023-03-17T08:39:17.156Z,6.97
2023-03-17T08:41:44.474Z,9.60
2023-03-17T08:44:13.119Z,7.97
2023-03-17T08:46:40.728Z,9.52
2023-03-17T08:49:08.194Z,8.00
2023-03-17T08:51:37.412Z,8.52
2023-03-17T08:54:05.750Z,8.73
2023-03-17T08:56:33.085Z,7.93
2023-03-17T08:59:00.679Z,8.60
2023-03-17T09:01:28.197Z,9.48
2023-03-17T09:03:56.051Z,9.27
2023-03-17T09:06:23.969Z,8.32
2023-03-17T09:08:55.529Z,9.45
2023-03-17T09:11:28.437Z,5.43
2023-03-17T09:13:57.688Z,8.88
2023-03-17T09:16:25.352Z,8.48
2023-03-17T09:18:52.665Z,6.88
2023-03-17T09:21:21.712Z,9.20
2023-03-17T09:23:49.333Z,8.98
2023-03-17T09:26:16.576Z,9.00
2023-03-17T09:28:44.671Z,9.20
2023-03-17T09:31:12.463Z,8.23
2023-03-17T09:33:42.053Z,9.30
2023-03-17T09:36:12.197Z,9.63
2023-03-17T09:38:39.448Z,7.85
2023-03-17T09:41:23.789Z,9.65
2023-03-17T09:44:05.164Z,9.35
2023-03-17T09:46:54.719Z,8.90
2023-03-17T09:49:27.634Z,7.38
2023-03-17T09:51:55.679Z,7.15
2023-03-17T09:54:38.191Z,10.57
2023-03-17T09:57:10.819Z,9.00
2023-03-17T09:59:43.872Z,10.27
2023-03-17T10:02:27.662Z,8.27
2023-03-17T10:04:55.118Z,9.82
2023-03-17T10:07:28.584Z,8.00
2023-03-17T10:10:05.155Z,8.98
2023-03-17T10:13:09.858Z,10.02
2023-03-17T10:15:49.307Z,7.75
2023-03-17T10:18:18.485Z,8.68
2023-03-17T10:20:57.191Z,8.88
2023-03-17T10:23:34.856Z,7.63
2023-03-17T10:26:39.689Z,8.30
2023-03-17T10:29:14.234Z,9.38
2023-03-17T10:31:41.473Z,8.43
2023-03-17T10:34:23.787Z,10.27
2023-03-17T10:36:54.951Z,7.20
2023-03-17T10:39:24.112Z,8.50
2023-03-17T10:42:01.548Z,8.68
2023-03-17T10:44:39.791Z,9.77
2023-03-17T10:47:07.405Z,8.93
2023-03-17T10:49:37.841Z,7.85
2023-03-17T10:52:22.601Z,11.43
2023-03-17T10:54:53.232Z,9.60
2023-03-17T10:57:20.878Z,7.82
2023-03-17T10:59:53.703Z,8.05
2023-03-17T11:02:25.917Z,9.75
2023-03-17T11:05:19.592Z,8.95
2023-03-17T11:07:46.862Z,9.02
2023-03-17T11:10:26.127Z,11.00
2023-03-17T11:13:01.731Z,9.80
2023-03-17T11:15:33.758Z,8.70
2023-03-17T11:18:14.084Z,10.65
2023-03-17T11:20:46.418Z,10.02
2023-03-17T11:23:38.935Z,8.02
2023-03-17T11:26:06.863Z,10.25
2023-03-17T11:28:39.285Z,11.93
2023-03-17T11:31:19.393Z,10.15
2023-03-17T11:33:56.764Z,9.93
2023-03-17T11:37:00.830Z,11.98
2023-03-17T11:39:36.697Z,9.07
2023-03-17T11:42:06.054Z,9.07
2023-03-17T11:44:58.183Z,9.38
2023-03-17T11:47:43.296Z,10.30
2023-03-17T11:50:22.084Z,11.82
2023-03-17T11:53:29.565Z,10.32
2023-03-17T11:56:14.379Z,10.23
2023-03-17T11:58:49.924Z,11.40
2023-03-17T12:01:22.989Z,10.25
2023-03-17T12:04:19.647Z,11.70
2023-03-17T12:06:56.046Z,10.43
2023-03-17T12:09:46.792Z,8.93
2023-03-17T12:12:20.513Z,9.10
2023-03-17T12:14:53.995Z,10.32
2023-03-17T12:17:30.299Z,9.52
2023-03-17T12:20:09.765Z,10.15
2023-03-17T12:23:01.429Z,9.48
2023-03-17T12:25:34.025Z,11.50
2023-03-17T12:28:01.603Z,13.00
2023-03-17T12:30:39.015Z,11.15
2023-03-17T12:33:27.664Z,10.88
2023-03-17T12:35:54.909Z,9.02
2023-03-17T12:38:23.493Z,10.27
2023-03-17T12:41:05.595Z,7.78
2023-03-17T12:43:38.958Z,9.65
2023-03-17T12:46:28.906Z,11.52
2023-03-17T12:49:02.197Z,8.63
2023-03-17T12:51:48.826Z,9.93
2023-03-17T12:54:27.909Z,10.75
2023-03-17T12:57:06.498Z,12.00
2023-03-17T12:59:35.683Z,10.77
2023-03-17T13:02:29.354Z,10.57
2023-03-17T13:05:00.752Z,10.82
2023-03-17T13:07:52.491Z,10.65
2023-03-17T13:10:42.592Z,11.18
2023-03-17T13:13:54.848Z,9.77
2023-03-17T13:16:39.222Z,10.90
2023-03-17T13:19:31.168Z,13.63
2023-03-17T13:22:01.156Z,10.57
2023-03-17T13:24:47.222Z,11.20
2023-03-17T13:27:32.436Z,11.77
2023-03-17T13:30:19.786Z,10.70
2023-03-17T13:33:10.397Z,10.82
2023-03-17T13:35:47.684Z,15.15
2023-03-17T13:38:15.467Z,10.98
2023-03-17T13:40:48.302Z,10.80
2023-03-17T13:43:24.229Z,11.70
2023-03-17T13:45:51.406Z,12.23
2023-03-17T13:48:37.948Z,10.27
2023-03-17T13:51:08.820Z,14.07
2023-03-17T13:53:41.340Z,10.35
2023-03-17T13:56:12.317Z,12.48
2023-03-17T13:59:12.628Z,10.95
2023-03-17T14:01:57.730Z,12.27
2023-03-17T14:04:57.680Z,10.73
2023-03-17T14:07:29.754Z,11.77
2023-03-17T14:09:59.521Z,10.23
2023-03-17T14:12:51.127Z,10.82
2023-03-17T14:15:28.153Z,7.70
2023-03-17T14:18:04.595Z,11.65
2023-03-17T14:20:32.148Z,10.68
2023-03-17T14:23:03.942Z,10.60
2023-03-17T14:25:37.578Z,10.77
2023-03-17T14:28:09.330Z,12.38
2023-03-17T14:30:38.325Z,11.05
2023-03-17T14:33:05.965Z,11.10
2023-03-17T14:35:39.753Z,12.02
2023-03-17T14:38:25.568Z,11.55
2023-03-17T14:41:05.471Z,12.50
2023-03-17T14:43:35.200Z,12.30
2023-03-17T14:46:04.078Z,12.43
2023-03-17T14:48:33.761Z,11.82
2023-03-17T14:51:06.767Z,12.07
2023-03-17T14:53:36.194Z,11.73
2023-03-17T14:56:04.565Z,12.18
2023-03-17T14:58:38.086Z,11.55
2023-03-17T15:01:08.053Z,10.57
2023-03-17T15:03:40.134Z,12.00
2023-03-17T15:06:29.549Z,12.13
2023-03-17T15:09:04.003Z,9.43
2023-03-17T15:11:44.566Z,13.20
2023-03-17T15:14:34.771Z,10.63
2023-03-17T15:17:13.115Z,10.77
2023-03-17T15:19:49.202Z,13.00
2023-03-17T15:22:42.468Z,10.32
2023-03-17T15:25:41.151Z,12.40
2023-03-17T15:28:34.623Z,13.07
2023-03-17T15:31:12.822Z,11.05
2023-03-17T15:33:41.323Z,10.43
2023-03-17T15:36:31.304Z,11.80
2023-03-17T15:38:59.957Z,12.98
2023-03-17T15:41:27.088Z,11.18
2023-03-17T15:43:54.350Z,10.65
2023-03-17T15:46:27.786Z,13.40
2023-03-17T15:48:55.146Z,11.23
2023-03-17T15:51:22.092Z,9.50
2023-03-17T15:53:49.516Z,11.88
2023-03-17T15:56:19.195Z,11.13
2023-03-17T15:58:52.417Z,14.00
2023-03-17T16:01:20.053Z,10.02
2023-03-17T16:03:47.920Z,11.77
2023-03-17T16:06:22.249Z,11.75
2023-03-17T16:08:50.602Z,11.98
2023-03-17T16:11:28.584Z,11.40
2023-03-17T16:14:00.456Z,10.65
2023-03-17T16:16:37.592Z,10.05
2023-03-17T16:19:05.513Z,12.10
2023-03-17T16:21:32.645Z,10.15
2023-03-17T16:24:01.421Z,11.07
2023-03-17T16:26:28.683Z,13.30
2023-03-17T16:28:56.656Z,10.73
2023-03-17T16:31:31.914Z,11.32
2023-03-17T16:33:58.915Z,8.52
2023-03-17T16:36:26.847Z,10.18
2023-03-17T16:38:54.058Z,10.80
2023-03-17T16:41:23.984Z,14.77
2023-03-17T16:46:21.003Z,8.85
2023-03-17T16:48:49.603Z,10.18
2023-03-17T16:51:16.841Z,10.02
2023-03-17T16:53:44.468Z,10.07
2023-03-17T16:56:18.624Z,12.63
2023-03-17T16:58:46.926Z,9.07
2023-03-17T17:01:27.250Z,12.90
2023-03-17T17:03:55.058Z,14.43
2023-03-17T17:06:22.619Z,9.73
2023-03-17T17:08:50.907Z,13.55
2023-03-17T17:11:19.461Z,10.82
2023-03-17T17:13:48.395Z,10.02
2023-03-17T17:16:27.256Z,11.05
2023-03-17T17:18:55.031Z,10.65
2023-03-17T17:21:21.954Z,15.75
2023-03-17T17:23:51.553Z,11.88
2023-03-17T17:26:20.020Z,11.43
2023-03-17T17:28:47.248Z,10.30
2023-03-17T17:31:14.451Z,11.32
2023-03-17T17:33:41.461Z,9.73
2023-03-17T17:36:14.609Z,9.55
2023-03-17T17:38:41.919Z,11.02
2023-03-17T17:41:11.009Z,11.23
2023-03-17T17:43:38.298Z,10.15
2023-03-17T17:46:11.537Z,17.30
2023-03-17T17:48:38.738Z,13.50
2023-03-17T17:51:06.140Z,8.45
2023-03-17T17:53:34.206Z,9.07
2023-03-17T17:56:01.561Z,9.63
2023-03-17T17:58:29.377Z,9.05
2023-03-17T18:00:57.601Z,11.05
2023-03-17T18:03:25.874Z,11.60
2023-03-17T18:05:56.860Z,10.82
2023-03-17T18:08:24.866Z,8.90
2023-03-17T18:10:52.599Z,13.35
2023-03-17T18:13:20.051Z,9.93
2023-03-17T18:15:47.372Z,9.43
2023-03-17T18:18:15.058Z,9.65
2023-03-17T18:20:42.411Z,9.27
2023-03-17T18:23:09.869Z,8.05
2023-03-17T18:25:37.634Z,9.43
2023-03-17T18:28:07.059Z,8.70
2023-03-17T18:30:35.463Z,11.68
2023-03-17T18:33:08.407Z,9.95
2023-03-17T18:35:36.102Z,10.15
2023-03-17T18:38:03.459Z,9.27
2023-03-17T18:40:30.958Z,10.60
2023-03-17T18:42:58.197Z,12.88
2023-03-17T18:45:25.612Z,9.43
2023-03-17T18:47:53.150Z,8.40
2023-03-17T18:50:22.167Z,10.07
2023-03-17T18:52:50.398Z,9.88
2023-03-17T18:55:18.960Z,9.25
2023-03-17T18:57:46.488Z,8.68
2023-03-17T19:00:16.447Z,8.88
2023-03-17T19:02:44.642Z,10.23
2023-03-17T19:05:13.047Z,9.98
2023-03-17T19:07:41.186Z,8.70
2023-03-17T19:10:09.769Z,10.00
2023-03-17T19:12:37.639Z,13.18
2023-03-17T19:15:06.294Z,16.20
2023-03-17T19:17:33.529Z,15.85
2023-03-17T19:20:01.055Z,15.27
2023-03-17T19:22:30.892Z,12.80
2023-03-17T19:24:58.050Z,12.65
2023-03-17T19:27:25.290Z,13.55
2023-03-17T19:29:52.530Z,11.50
2023-03-17T19:32:19.870Z,13.05
2023-03-17T19:34:47.780Z,9.88
2023-03-17T19:37:15.263Z,13.93
2023-03-17T19:39:44.860Z,22.20
2023-03-17T19:42:12.855Z,17.88
2023-03-17T19:44:40.536Z,15.25
2023-03-17T19:47:08.415Z,15.48
2023-03-17T19:49:36.874Z,23.15
2023-03-17T19:52:04.598Z,26.23
2023-03-17T19:54:31.759Z,23.50
2023-03-17T19:56:58.962Z,23.00
2023-03-17T19:59:26.341Z,17.83
2023-03-17T20:01:53.597Z,18.60
2023-03-17T20:04:22.493Z,19.70
2023-03-17T20:06:55.277Z,21.45
2023-03-17T20:09:25.997Z,19.23
2023-03-17T20:11:56.607Z,18.20
2023-03-17T20:14:24.329Z,17.60
2023-03-17T20:16:51.933Z,19.63
2023-03-17T20:19:19.373Z,15.77
2023-03-17T20:21:46.655Z,17.80
2023-03-17T20:24:14.977Z,16.60
2023-03-17T20:26:43.396Z,16.63
2023-03-17T20:29:12.632Z,19.15
2023-03-17T20:31:40.143Z,17.83
2023-03-17T20:34:08.029Z,14.93
2023-03-17T20:36:35.582Z,15.30
2023-03-17T20:39:04.752Z,15.23
2023-03-17T20:41:32.341Z,13.95
2023-03-17T20:43:59.619Z,16.23
2023-03-17T20:46:26.858Z,17.42
2023-03-17T20:48:58.839Z,20.48
2023-03-17T20:51:26.956Z,20.83
2023-03-17T20:53:55.176Z,19.83
2023-03-17T20:56:23.624Z,20.85
2023-03-17T20:58:53.199Z,21.95
2023-03-17T21:01:21.782Z,23.50
2023-03-17T21:03:49.515Z,24.77
2023-03-17T21:06:16.953Z,26.60
2023-03-17T21:08:46.055Z,27.33
2023-03-17T21:11:20.898Z,21.00
2023-03-17T21:13:48.034Z,22.42
2023-03-17T21:16:24.097Z,17.27
2023-03-17T21:18:51.990Z,18.77
2023-03-17T21:21:19.758Z,17.25
2023-03-17T21:23:46.966Z,17.20
2023-03-17T21:26:14.924Z,19.92
2023-03-17T21:28:42.885Z,18.85
2023-03-17T21:31:10.934Z,18.40
2023-03-17T21:33:38.397Z,19.77
2023-03-17T21:36:06.119Z,16.38
2023-03-17T21:38:33.779Z,13.25
2023-03-17T21:41:19.075Z,15.32
2023-03-17T21:43:46.902Z,16.50
2023-03-17T21:46:15.767Z,16.60
2023-03-17T21:48:44.312Z,15.35
2023-03-17T21:51:11.909Z,13.25
2023-03-17T21:53:39.346Z,13.32
2023-03-17T21:56:06.808Z,13.60
2023-03-17T21:58:34.207Z,14.05
2023-03-17T22:01:01.832Z,14.88
2023-03-17T22:03:29.534Z,15.82
2023-03-17T22:05:56.686Z,14.13
2023-03-17T22:08:23.865Z,14.88
2023-03-17T22:10:51.158Z,14.70
2023-03-17T22:13:18.771Z,18.38
2023-03-17T22:15:46.060Z,14.23
2023-03-17T22:18:13.606Z,15.45
2023-03-17T22:20:41.213Z,13.82
2023-03-17T22:23:08.470Z,17.75
2023-03-17T22:25:35.616Z,14.90
2023-03-17T22:28:03.157Z,14.20
2023-03-17T22:30:31.028Z,13.90
2023-03-17T22:32:58.714Z,19.08
2023-03-17T22:35:26.000Z,14.43
2023-03-17T22:37:53.049Z,14.73
2023-03-17T22:40:20.565Z,14.52
2023-03-17T22:42:48.281Z,18.10
2023-03-17T22:45:16.211Z,14.90
2023-03-17T22:47:43.981Z,14.23
2023-03-17T22:50:12.143Z,15.80
2023-03-17T22:52:39.750Z,19.65
2023-03-17T22:55:07.974Z,17.90
2023-03-17T22:57:35.377Z,16.35
2023-03-17T23:00:03.979Z,16.80
2023-03-17T23:02:31.414Z,16.27
2023-03-17T23:04:58.798Z,15.70
2023-03-17T23:07:28.250Z,16.08
2023-03-17T23:09:56.879Z,15.98
2023-03-17T23:12:24.945Z,16.85
2023-03-17T23:14:52.282Z,25.27
2023-03-17T23:17:19.625Z,20.38
2023-03-17T23:19:47.014Z,19.90
2023-03-17T23:22:14.441Z,21.35
2023-03-17T23:24:41.593Z,24.75
2023-03-17T23:27:08.798Z,20.65
2023-03-17T23:29:36.172Z,18.77
2023-03-17T23:32:04.062Z,20.63
2023-03-17T23:34:31.180Z,22.88
2023-03-17T23:36:58.383Z,19.35
2023-03-17T23:39:26.008Z,21.98
2023-03-17T23:41:53.156Z,18.27
2023-03-17T23:44:20.401Z,20.65
2023-03-17T23:46:47.581Z,23.90
2023-03-17T23:49:14.876Z,23.05
2023-03-17T23:51:42.166Z,23.90
2023-03-17T23:54:10.157Z,21.35
2023-03-17T23:56:37.311Z,18.70
2023-03-17T23:59:04.552Z,17.38
